sensor_id;sensor_type;location;lat;lon;timestamp;P1;durP1;ratioP1;P2;durP2;ratioP2
19651;SDS011;9974;52.146;14.668;2023-04-15T00:00:49;49.25;;;36.53;;
19651;SDS011;9974;52.146;14.668;2023-04-15T00:03:16;49.95;;;35.55;;
19651;SDS011;9974;52.146;14.668;2023-04-15T00:05:42;49.38;;;35.63;;
19651;SDS011;9974;52.146;14.668;2023-04-15T00:08:08;53.70;;;35.33;;
19651;SDS011;9974;52.146;14.668;2023-04-15T00:10:34;51.42;;;37.38;;
19651;SDS011;9974;52.146;14.668;2023-04-15T00:13:00;48.80;;;35.90;;
19651;SDS011;9974;52.146;14.668;2023-04-15T00:15:28;52.35;;;36.10;;
19651;SDS011;9974;52.146;14.668;2023-04-15T00:17:54;49.65;;;36.10;;
19651;SDS011;9974;52.146;14.668;2023-04-15T00:20:20;47.65;;;35.70;;
19651;SDS011;9974;52.146;14.668;2023-04-15T00:22:46;48.00;;;34.95;;
19651;SDS011;9974;52.146;14.668;2023-04-15T00:25:12;47.53;;;33.97;;
19651;SDS011;9974;52.146;14.668;2023-04-15T00:27:39;49.53;;;35.20;;
19651;SDS011;9974;52.146;14.668;2023-04-15T00:30:05;49.38;;;35.47;;
19651;SDS011;9974;52.146;14.668;2023-04-15T00:32:31;48.58;;;33.72;;
19651;SDS011;9974;52.146;14.668;2023-04-15T00:34:57;45.90;;;34.85;;
19651;SDS011;9974;52.146;14.668;2023-04-15T00:37:23;52.75;;;33.10;;
19651;SDS011;9974;52.146;14.668;2023-04-15T00:39:49;46.78;;;33.17;;
19651;SDS011;9974;52.146;14.668;2023-04-15T00:42:15;44.67;;;32.60;;
19651;SDS011;9974;52.146;14.668;2023-04-15T00:44:42;45.58;;;33.55;;
19651;SDS011;9974;52.146;14.668;2023-04-15T00:47:08;43.67;;;32.20;;
19651;SDS011;9974;52.146;14.668;2023-04-15T00:49:34;43.15;;;31.52;;
19651;SDS011;9974;52.146;14.668;2023-04-15T00:52:00;44.63;;;31.33;;
19651;SDS011;9974;52.146;14.668;2023-04-15T00:54:26;41.80;;;31.02;;
19651;SDS011;9974;52.146;14.668;2023-04-15T00:56:53;39.47;;;29.63;;
19651;SDS011;9974;52.146;14.668;2023-04-15T00:59:19;39.97;;;29.85;;
19651;SDS011;9974;52.146;14.668;2023-04-15T01:01:46;41.65;;;30.38;;
19651;SDS011;9974;52.146;14.668;2023-04-15T01:04:12;44.40;;;29.70;;
19651;SDS011;9974;52.146;14.668;2023-04-15T01:06:39;41.30;;;29.90;;
19651;SDS011;9974;52.146;14.668;2023-04-15T01:09:05;39.08;;;28.85;;
19651;SDS011;9974;52.146;14.668;2023-04-15T01:11:31;38.78;;;29.52;;
19651;SDS011;9974;52.146;14.668;2023-04-15T01:14:00;37.67;;;28.40;;
19651;SDS011;9974;52.146;14.668;2023-04-15T01:16:26;40.30;;;28.60;;
19651;SDS011;9974;52.146;14.668;2023-04-15T01:18:52;42.67;;;27.77;;
19651;SDS011;9974;52.146;14.668;2023-04-15T01:21:19;38.75;;;27.70;;
19651;SDS011;9974;52.146;14.668;2023-04-15T01:23:46;36.15;;;27.25;;
19651;SDS011;9974;52.146;14.668;2023-04-15T01:26:12;40.92;;;28.00;;
19651;SDS011;9974;52.146;14.668;2023-04-15T01:28:38;35.17;;;26.65;;
19651;SDS011;9974;52.146;14.668;2023-04-15T01:31:13;42.75;;;27.80;;
19651;SDS011;9974;52.146;14.668;2023-04-15T01:33:40;36.30;;;26.45;;
19651;SDS011;9974;52.146;14.668;2023-04-15T01:36:07;36.28;;;26.42;;
19651;SDS011;9974;52.146;14.668;2023-04-15T01:38:37;33.83;;;25.33;;
19651;SDS011;9974;52.146;14.668;2023-04-15T01:41:03;37.15;;;25.95;;
19651;SDS011;9974;52.146;14.668;2023-04-15T01:43:30;33.80;;;25.65;;
19651;SDS011;9974;52.146;14.668;2023-04-15T01:45:56;34.40;;;25.27;;
19651;SDS011;9974;52.146;14.668;2023-04-15T01:48:22;32.58;;;24.80;;
19651;SDS011;9974;52.146;14.668;2023-04-15T01:50:48;33.63;;;25.90;;
19651;SDS011;9974;52.146;14.668;2023-04-15T01:53:15;31.38;;;24.25;;
19651;SDS011;9974;52.146;14.668;2023-04-15T01:55:41;32.70;;;24.08;;
19651;SDS011;9974;52.146;14.668;2023-04-15T01:58:07;35.08;;;26.77;;
19651;SDS011;9974;52.146;14.668;2023-04-15T02:00:33;33.22;;;24.55;;
19651;SDS011;9974;52.146;14.668;2023-04-15T02:02:59;33.83;;;24.05;;
19651;SDS011;9974;52.146;14.668;2023-04-15T02:05:25;34.92;;;23.73;;
19651;SDS011;9974;52.146;14.668;2023-04-15T02:07:51;37.13;;;25.23;;
19651;SDS011;9974;52.146;14.668;2023-04-15T02:10:17;34.38;;;23.48;;
19651;SDS011;9974;52.146;14.668;2023-04-15T02:12:44;31.17;;;23.52;;
19651;SDS011;9974;52.146;14.668;2023-04-15T02:15:10;34.80;;;23.25;;
19651;SDS011;9974;52.146;14.668;2023-04-15T02:17:36;29.88;;;22.90;;
19651;SDS011;9974;52.146;14.668;2023-04-15T02:20:03;27.48;;;21.98;;
19651;SDS011;9974;52.146;14.668;2023-04-15T02:22:35;29.50;;;22.35;;
19651;SDS011;9974;52.146;14.668;2023-04-15T02:25:01;32.72;;;22.33;;
19651;SDS011;9974;52.146;14.668;2023-04-15T02:27:27;29.10;;;21.90;;
19651;SDS011;9974;52.146;14.668;2023-04-15T02:29:53;28.63;;;21.30;;
19651;SDS011;9974;52.146;14.668;2023-04-15T02:32:19;27.73;;;20.73;;
19651;SDS011;9974;52.146;14.668;2023-04-15T02:34:47;27.55;;;19.83;;
19651;SDS011;9974;52.146;14.668;2023-04-15T02:37:13;25.88;;;18.10;;
19651;SDS011;9974;52.146;14.668;2023-04-15T02:39:39;27.40;;;18.25;;
19651;SDS011;9974;52.146;14.668;2023-04-15T02:42:05;21.67;;;17.15;;
19651;SDS011;9974;52.146;14.668;2023-04-15T02:44:31;20.88;;;16.77;;
19651;SDS011;9974;52.146;14.668;2023-04-15T02:46:59;20.67;;;16.08;;
19651;SDS011;9974;52.146;14.668;2023-04-15T02:49:24;23.20;;;16.35;;
19651;SDS011;9974;52.146;14.668;2023-04-15T02:51:50;22.40;;;16.90;;
19651;SDS011;9974;52.146;14.668;2023-04-15T02:54:19;20.73;;;15.57;;
19651;SDS011;9974;52.146;14.668;2023-04-15T02:56:48;17.85;;;13.07;;
19651;SDS011;9974;52.146;14.668;2023-04-15T02:59:15;16.48;;;12.25;;
19651;SDS011;9974;52.146;14.668;2023-04-15T03:01:40;19.10;;;12.80;;
19651;SDS011;9974;52.146;14.668;2023-04-15T03:04:06;14.55;;;11.45;;
19651;SDS011;9974;52.146;14.668;2023-04-15T03:06:32;19.33;;;12.07;;
19651;SDS011;9974;52.146;14.668;2023-04-15T03:08:59;15.02;;;11.73;;
19651;SDS011;9974;52.146;14.668;2023-04-15T03:11:26;15.35;;;11.50;;
19651;SDS011;9974;52.146;14.668;2023-04-15T03:13:53;16.08;;;11.05;;
19651;SDS011;9974;52.146;14.668;2023-04-15T03:16:19;16.75;;;11.25;;
19651;SDS011;9974;52.146;14.668;2023-04-15T03:18:45;17.40;;;11.38;;
19651;SDS011;9974;52.146;14.668;2023-04-15T03:21:11;16.30;;;10.77;;
19651;SDS011;9974;52.146;14.668;2023-04-15T03:23:37;14.75;;;9.98;;
19651;SDS011;9974;52.146;14.668;2023-04-15T03:26:03;16.40;;;10.40;;
19651;SDS011;9974;52.146;14.668;2023-04-15T03:28:29;15.80;;;10.35;;
19651;SDS011;9974;52.146;14.668;2023-04-15T03:30:56;12.52;;;9.00;;
19651;SDS011;9974;52.146;14.668;2023-04-15T03:33:23;16.10;;;10.05;;
19651;SDS011;9974;52.146;14.668;2023-04-15T03:35:49;15.70;;;9.65;;
19651;SDS011;9974;52.146;14.668;2023-04-15T03:38:16;12.27;;;8.93;;
19651;SDS011;9974;52.146;14.668;2023-04-15T03:40:42;14.13;;;9.70;;
19651;SDS011;9974;52.146;14.668;2023-04-15T03:43:10;14.52;;;9.32;;
19651;SDS011;9974;52.146;14.668;2023-04-15T03:45:36;14.57;;;9.90;;
19651;SDS011;9974;52.146;14.668;2023-04-15T03:48:02;15.10;;;9.13;;
19651;SDS011;9974;52.146;14.668;2023-04-15T03:50:28;15.23;;;9.30;;
19651;SDS011;9974;52.146;14.668;2023-04-15T03:52:54;15.18;;;10.82;;
19651;SDS011;9974;52.146;14.668;2023-04-15T03:55:20;14.60;;;9.60;;
19651;SDS011;9974;52.146;14.668;2023-04-15T03:57:46;15.70;;;9.45;;
19651;SDS011;9974;52.146;14.668;2023-04-15T04:00:12;14.52;;;8.93;;
19651;SDS011;9974;52.146;14.668;2023-04-15T04:02:39;14.77;;;8.95;;
19651;SDS011;9974;52.146;14.668;2023-04-15T04:05:05;15.30;;;9.75;;
19651;SDS011;9974;52.146;14.668;2023-04-15T04:07:32;15.13;;;9.68;;
19651;SDS011;9974;52.146;14.668;2023-04-15T04:09:58;13.50;;;9.40;;
19651;SDS011;9974;52.146;14.668;2023-04-15T04:12:23;12.70;;;9.98;;
19651;SDS011;9974;52.146;14.668;2023-04-15T04:14:49;13.77;;;9.93;;
19651;SDS011;9974;52.146;14.668;2023-04-15T04:17:16;14.32;;;9.45;;
19651;SDS011;9974;52.146;14.668;2023-04-15T04:19:42;12.98;;;9.18;;
19651;SDS011;9974;52.146;14.668;2023-04-15T04:22:08;12.57;;;9.38;;
19651;SDS011;9974;52.146;14.668;2023-04-15T04:24:34;12.52;;;9.13;;
19651;SDS011;9974;52.146;14.668;2023-04-15T04:27:00;15.02;;;9.30;;
19651;SDS011;9974;52.146;14.668;2023-04-15T04:29:26;13.77;;;10.13;;
19651;SDS011;9974;52.146;14.668;2023-04-15T04:31:52;19.08;;;9.60;;
19651;SDS011;9974;52.146;14.668;2023-04-15T04:34:18;15.00;;;9.80;;
19651;SDS011;9974;52.146;14.668;2023-04-15T04:36:44;16.13;;;9.27;;
19651;SDS011;9974;52.146;14.668;2023-04-15T04:39:10;13.10;;;9.77;;
19651;SDS011;9974;52.146;14.668;2023-04-15T04:41:36;17.52;;;9.50;;
19651;SDS011;9974;52.146;14.668;2023-04-15T04:44:02;12.32;;;9.77;;
19651;SDS011;9974;52.146;14.668;2023-04-15T04:46:27;13.82;;;8.70;;
19651;SDS011;9974;52.146;14.668;2023-04-15T04:48:53;12.13;;;9.95;;
19651;SDS011;9974;52.146;14.668;2023-04-15T04:51:20;12.63;;;9.45;;
19651;SDS011;9974;52.146;14.668;2023-04-15T04:53:45;13.35;;;10.00;;
19651;SDS011;9974;52.146;14.668;2023-04-15T04:56:11;12.57;;;9.45;;
19651;SDS011;9974;52.146;14.668;2023-04-15T04:58:37;15.30;;;9.75;;
19651;SDS011;9974;52.146;14.668;2023-04-15T05:01:03;14.25;;;9.05;;
19651;SDS011;9974;52.146;14.668;2023-04-15T05:03:29;16.80;;;9.93;;
19651;SDS011;9974;52.146;14.668;2023-04-15T05:05:56;19.73;;;10.57;;
19651;SDS011;9974;52.146;14.668;2023-04-15T05:08:22;11.90;;;9.68;;
19651;SDS011;9974;52.146;14.668;2023-04-15T05:10:48;14.98;;;10.50;;
19651;SDS011;9974;52.146;14.668;2023-04-15T05:13:14;16.30;;;10.32;;
19651;SDS011;9974;52.146;14.668;2023-04-15T05:15:40;16.73;;;10.52;;
19651;SDS011;9974;52.146;14.668;2023-04-15T05:18:07;12.02;;;9.85;;
19651;SDS011;9974;52.146;14.668;2023-04-15T05:20:33;13.18;;;9.45;;
19651;SDS011;9974;52.146;14.668;2023-04-15T05:22:59;18.38;;;10.77;;
19651;SDS011;9974;52.146;14.668;2023-04-15T05:25:25;14.77;;;10.10;;
19651;SDS011;9974;52.146;14.668;2023-04-15T05:27:51;16.25;;;11.48;;
19651;SDS011;9974;52.146;14.668;2023-04-15T05:30:17;13.88;;;10.82;;
19651;SDS011;9974;52.146;14.668;2023-04-15T05:32:43;15.88;;;10.55;;
19651;SDS011;9974;52.146;14.668;2023-04-15T05:35:09;15.38;;;10.63;;
19651;SDS011;9974;52.146;14.668;2023-04-15T05:37:36;14.63;;;11.18;;
19651;SDS011;9974;52.146;14.668;2023-04-15T05:40:01;14.45;;;10.93;;
19651;SDS011;9974;52.146;14.668;2023-04-15T05:42:28;13.20;;;10.57;;
19651;SDS011;9974;52.146;14.668;2023-04-15T05:44:54;13.88;;;10.88;;
19651;SDS011;9974;52.146;14.668;2023-04-15T05:47:21;14.77;;;11.75;;
19651;SDS011;9974;52.146;14.668;2023-04-15T05:49:47;16.05;;;11.82;;
19651;SDS011;9974;52.146;14.668;2023-04-15T05:52:13;14.82;;;11.77;;
19651;SDS011;9974;52.146;14.668;2023-04-15T05:54:39;13.80;;;10.52;;
19651;SDS011;9974;52.146;14.668;2023-04-15T05:57:05;13.90;;;10.38;;
19651;SDS011;9974;52.146;14.668;2023-04-15T05:59:31;15.40;;;11.10;;
19651;SDS011;9974;52.146;14.668;2023-04-15T06:01:57;14.20;;;11.35;;
19651;SDS011;9974;52.146;14.668;2023-04-15T06:04:23;14.70;;;10.77;;
19651;SDS011;9974;52.146;14.668;2023-04-15T06:06:49;17.23;;;10.80;;
19651;SDS011;9974;52.146;14.668;2023-04-15T06:09:15;17.77;;;10.90;;
19651;SDS011;9974;52.146;14.668;2023-04-15T06:11:41;17.00;;;11.98;;
19651;SDS011;9974;52.146;14.668;2023-04-15T06:14:07;14.20;;;11.13;;
19651;SDS011;9974;52.146;14.668;2023-04-15T06:16:33;16.00;;;12.25;;
19651;SDS011;9974;52.146;14.668;2023-04-15T06:19:00;18.13;;;12.50;;
19651;SDS011;9974;52.146;14.668;2023-04-15T06:21:26;15.93;;;11.43;;
19651;SDS011;9974;52.146;14.668;2023-04-15T06:23:52;17.40;;;12.13;;
19651;SDS011;9974;52.146;14.668;2023-04-15T06:26:19;19.75;;;12.38;;
19651;SDS011;9974;52.146;14.668;2023-04-15T06:28:45;14.93;;;11.88;;
19651;SDS011;9974;52.146;14.668;2023-04-15T06:31:10;17.85;;;12.50;;
19651;SDS011;9974;52.146;14.668;2023-04-15T06:33:36;15.52;;;11.73;;
19651;SDS011;9974;52.146;14.668;2023-04-15T06:36:03;16.70;;;12.93;;
19651;SDS011;9974;52.146;14.668;2023-04-15T06:38:29;19.88;;;13.10;;
19651;SDS011;9974;52.146;14.668;2023-04-15T06:40:55;17.05;;;12.98;;
19651;SDS011;9974;52.146;14.668;2023-04-15T06:43:21;16.55;;;12.80;;
19651;SDS011;9974;52.146;14.668;2023-04-15T06:45:47;17.90;;;13.07;;
19651;SDS011;9974;52.146;14.668;2023-04-15T06:48:13;19.92;;;12.88;;
19651;SDS011;9974;52.146;14.668;2023-04-15T06:50:39;16.48;;;13.18;;
19651;SDS011;9974;52.146;14.668;2023-04-15T06:53:05;14.80;;;12.63;;
19651;SDS011;9974;52.146;14.668;2023-04-15T06:55:31;17.75;;;13.60;;
19651;SDS011;9974;52.146;14.668;2023-04-15T06:57:58;16.05;;;13.25;;
19651;SDS011;9974;52.146;14.668;2023-04-15T07:00:24;19.02;;;13.23;;
19651;SDS011;9974;52.146;14.668;2023-04-15T07:02:50;17.08;;;12.65;;
19651;SDS011;9974;52.146;14.668;2023-04-15T07:05:16;15.75;;;12.85;;
19651;SDS011;9974;52.146;14.668;2023-04-15T07:07:42;15.73;;;12.05;;
19651;SDS011;9974;52.146;14.668;2023-04-15T07:10:09;15.82;;;11.55;;
19651;SDS011;9974;52.146;14.668;2023-04-15T07:12:35;14.23;;;11.75;;
19651;SDS011;9974;52.146;14.668;2023-04-15T07:15:02;15.85;;;12.25;;
19651;SDS011;9974;52.146;14.668;2023-04-15T07:17:28;17.83;;;12.88;;
19651;SDS011;9974;52.146;14.668;2023-04-15T07:19:54;13.27;;;11.55;;
19651;SDS011;9974;52.146;14.668;2023-04-15T07:22:20;17.77;;;12.10;;
19651;SDS011;9974;52.146;14.668;2023-04-15T07:24:46;14.82;;;11.85;;
19651;SDS011;9974;52.146;14.668;2023-04-15T07:27:12;16.20;;;12.27;;
19651;SDS011;9974;52.146;14.668;2023-04-15T07:29:38;15.90;;;12.95;;
19651;SDS011;9974;52.146;14.668;2023-04-15T07:32:05;16.50;;;11.13;;
19651;SDS011;9974;52.146;14.668;2023-04-15T07:34:31;14.45;;;11.40;;
19651;SDS011;9974;52.146;14.668;2023-04-15T07:36:57;15.60;;;12.13;;
19651;SDS011;9974;52.146;14.668;2023-04-15T07:39:23;16.05;;;12.00;;
19651;SDS011;9974;52.146;14.668;2023-04-15T07:41:49;14.15;;;11.60;;
19651;SDS011;9974;52.146;14.668;2023-04-15T07:44:16;15.30;;;13.02;;
19651;SDS011;9974;52.146;14.668;2023-04-15T07:46:41;15.73;;;12.80;;
19651;SDS011;9974;52.146;14.668;2023-04-15T07:49:07;17.05;;;12.30;;
19651;SDS011;9974;52.146;14.668;2023-04-15T07:51:33;15.90;;;11.60;;
19651;SDS011;9974;52.146;14.668;2023-04-15T07:53:59;18.85;;;13.02;;
19651;SDS011;9974;52.146;14.668;2023-04-15T07:56:27;16.40;;;13.23;;
19651;SDS011;9974;52.146;14.668;2023-04-15T07:58:53;17.85;;;12.02;;
19651;SDS011;9974;52.146;14.668;2023-04-15T08:01:19;16.38;;;13.68;;
19651;SDS011;9974;52.146;14.668;2023-04-15T08:03:45;14.68;;;12.65;;
19651;SDS011;9974;52.146;14.668;2023-04-15T08:06:12;15.02;;;12.10;;
19651;SDS011;9974;52.146;14.668;2023-04-15T08:08:38;16.92;;;13.10;;
19651;SDS011;9974;52.146;14.668;2023-04-15T08:11:04;17.38;;;13.07;;
19651;SDS011;9974;52.146;14.668;2023-04-15T08:13:30;15.95;;;13.00;;
19651;SDS011;9974;52.146;14.668;2023-04-15T08:18:42;16.05;;;11.60;;
19651;SDS011;9974;52.146;14.668;2023-04-15T08:21:08;18.55;;;13.05;;
19651;SDS011;9974;52.146;14.668;2023-04-15T08:23:35;16.88;;;12.40;;
19651;SDS011;9974;52.146;14.668;2023-04-15T08:26:01;15.15;;;12.25;;
19651;SDS011;9974;52.146;14.668;2023-04-15T08:28:27;15.77;;;10.90;;
19651;SDS011;9974;52.146;14.668;2023-04-15T08:30:53;15.73;;;11.95;;
19651;SDS011;9974;52.146;14.668;2023-04-15T08:33:19;13.15;;;11.52;;
19651;SDS011;9974;52.146;14.668;2023-04-15T08:35:46;13.63;;;11.65;;
19651;SDS011;9974;52.146;14.668;2023-04-15T08:38:12;13.13;;;11.00;;
19651;SDS011;9974;52.146;14.668;2023-04-15T08:40:42;16.77;;;11.60;;
19651;SDS011;9974;52.146;14.668;2023-04-15T08:43:10;12.95;;;10.57;;
19651;SDS011;9974;52.146;14.668;2023-04-15T08:45:39;14.27;;;11.65;;
19651;SDS011;9974;52.146;14.668;2023-04-15T08:48:05;12.18;;;9.88;;
19651;SDS011;9974;52.146;14.668;2023-04-15T08:50:32;15.27;;;11.15;;
19651;SDS011;9974;52.146;14.668;2023-04-15T08:52:58;15.80;;;12.23;;
19651;SDS011;9974;52.146;14.668;2023-04-15T08:55:28;16.25;;;12.13;;
19651;SDS011;9974;52.146;14.668;2023-04-15T08:57:58;14.45;;;11.80;;
19651;SDS011;9974;52.146;14.668;2023-04-15T09:00:25;13.70;;;11.10;;
19651;SDS011;9974;52.146;14.668;2023-04-15T09:02:51;14.70;;;12.43;;
19651;SDS011;9974;52.146;14.668;2023-04-15T09:05:17;15.18;;;12.05;;
19651;SDS011;9974;52.146;14.668;2023-04-15T09:07:45;14.50;;;11.32;;
19651;SDS011;9974;52.146;14.668;2023-04-15T09:10:11;17.65;;;13.32;;
19651;SDS011;9974;52.146;14.668;2023-04-15T09:12:37;15.65;;;11.88;;
19651;SDS011;9974;52.146;14.668;2023-04-15T09:15:02;15.55;;;12.43;;
19651;SDS011;9974;52.146;14.668;2023-04-15T09:17:29;14.65;;;11.95;;
19651;SDS011;9974;52.146;14.668;2023-04-15T09:20:08;15.90;;;11.93;;
19651;SDS011;9974;52.146;14.668;2023-04-15T09:22:36;12.70;;;11.27;;
19651;SDS011;9974;52.146;14.668;2023-04-15T09:25:08;14.43;;;12.20;;
19651;SDS011;9974;52.146;14.668;2023-04-15T09:27:59;14.88;;;12.50;;
19651;SDS011;9974;52.146;14.668;2023-04-15T09:30:26;14.60;;;12.45;;
19651;SDS011;9974;52.146;14.668;2023-04-15T09:32:56;15.82;;;12.50;;
19651;SDS011;9974;52.146;14.668;2023-04-15T09:35:24;18.17;;;12.90;;
19651;SDS011;9974;52.146;14.668;2023-04-15T09:37:51;17.13;;;13.73;;
19651;SDS011;9974;52.146;14.668;2023-04-15T09:40:34;15.75;;;14.10;;
19651;SDS011;9974;52.146;14.668;2023-04-15T09:43:05;14.30;;;11.98;;
19651;SDS011;9974;52.146;14.668;2023-04-15T09:45:33;15.00;;;11.65;;
19651;SDS011;9974;52.146;14.668;2023-04-15T09:50:46;15.55;;;12.95;;
19651;SDS011;9974;52.146;14.668;2023-04-15T09:53:19;15.85;;;12.60;;
19651;SDS011;9974;52.146;14.668;2023-04-15T09:55:53;16.85;;;12.77;;
19651;SDS011;9974;52.146;14.668;2023-04-15T09:58:21;15.77;;;14.07;;
19651;SDS011;9974;52.146;14.668;2023-04-15T10:00:50;17.50;;;14.52;;
19651;SDS011;9974;52.146;14.668;2023-04-15T10:03:21;14.73;;;13.13;;
19651;SDS011;9974;52.146;14.668;2023-04-15T10:05:54;14.13;;;12.40;;
19651;SDS011;9974;52.146;14.668;2023-04-15T10:08:22;14.85;;;12.70;;
19651;SDS011;9974;52.146;14.668;2023-04-15T10:10:49;13.95;;;11.77;;
19651;SDS011;9974;52.146;14.668;2023-04-15T10:13:19;13.40;;;11.90;;
19651;SDS011;9974;52.146;14.668;2023-04-15T10:15:55;13.95;;;11.65;;
19651;SDS011;9974;52.146;14.668;2023-04-15T10:18:24;14.35;;;12.05;;
19651;SDS011;9974;52.146;14.668;2023-04-15T10:20:52;16.13;;;13.25;;
19651;SDS011;9974;52.146;14.668;2023-04-15T10:23:18;15.18;;;12.88;;
19651;SDS011;9974;52.146;14.668;2023-04-15T10:25:46;13.45;;;12.00;;
19651;SDS011;9974;52.146;14.668;2023-04-15T10:28:14;15.70;;;12.68;;
19651;SDS011;9974;52.146;14.668;2023-04-15T10:30:40;15.45;;;12.65;;
19651;SDS011;9974;52.146;14.668;2023-04-15T10:33:07;18.70;;;13.73;;
19651;SDS011;9974;52.146;14.668;2023-04-15T10:35:34;19.65;;;13.35;;
19651;SDS011;9974;52.146;14.668;2023-04-15T10:38:01;15.27;;;13.68;;
19651;SDS011;9974;52.146;14.668;2023-04-15T10:40:27;15.05;;;13.20;;
19651;SDS011;9974;52.146;14.668;2023-04-15T10:42:58;15.23;;;12.88;;
19651;SDS011;9974;52.146;14.668;2023-04-15T10:45:26;15.25;;;12.18;;
19651;SDS011;9974;52.146;14.668;2023-04-15T10:47:57;14.13;;;12.63;;
19651;SDS011;9974;52.146;14.668;2023-04-15T10:50:25;14.30;;;12.35;;
19651;SDS011;9974;52.146;14.668;2023-04-15T10:52:54;16.05;;;12.50;;
19651;SDS011;9974;52.146;14.668;2023-04-15T10:55:22;14.38;;;12.00;;
19651;SDS011;9974;52.146;14.668;2023-04-15T10:57:53;13.27;;;11.13;;
19651;SDS011;9974;52.146;14.668;2023-04-15T11:00:27;13.18;;;11.77;;
19651;SDS011;9974;52.146;14.668;2023-04-15T11:03:04;13.32;;;11.93;;
19651;SDS011;9974;52.146;14.668;2023-04-15T11:08:07;16.88;;;12.90;;
19651;SDS011;9974;52.146;14.668;2023-04-15T11:13:03;14.50;;;12.43;;
19651;SDS011;9974;52.146;14.668;2023-04-15T11:15:40;14.50;;;12.55;;
19651;SDS011;9974;52.146;14.668;2023-04-15T11:18:25;14.98;;;12.68;;
19651;SDS011;9974;52.146;14.668;2023-04-15T11:21:01;13.80;;;11.98;;
19651;SDS011;9974;52.146;14.668;2023-04-15T11:23:38;14.98;;;11.90;;
19651;SDS011;9974;52.146;14.668;2023-04-15T11:26:08;18.77;;;11.68;;
19651;SDS011;9974;52.146;14.668;2023-04-15T11:28:36;17.35;;;13.25;;
19651;SDS011;9974;52.146;14.668;2023-04-15T11:31:14;14.75;;;11.98;;
19651;SDS011;9974;52.146;14.668;2023-04-15T11:34:00;13.20;;;11.80;;
19651;SDS011;9974;52.146;14.668;2023-04-15T11:36:28;14.00;;;11.65;;
19651;SDS011;9974;52.146;14.668;2023-04-15T11:38:56;26.25;;;13.05;;
19651;SDS011;9974;52.146;14.668;2023-04-15T11:41:23;16.48;;;13.20;;
19651;SDS011;9974;52.146;14.668;2023-04-15T11:43:50;15.13;;;12.32;;
19651;SDS011;9974;52.146;14.668;2023-04-15T11:46:16;13.50;;;12.07;;
19651;SDS011;9974;52.146;14.668;2023-04-15T11:48:43;17.13;;;11.65;;
19651;SDS011;9974;52.146;14.668;2023-04-15T11:51:10;13.32;;;10.93;;
19651;SDS011;9974;52.146;14.668;2023-04-15T11:53:38;14.27;;;12.63;;
19651;SDS011;9974;52.146;14.668;2023-04-15T11:56:05;16.58;;;12.82;;
19651;SDS011;9974;52.146;14.668;2023-04-15T11:58:33;13.52;;;11.30;;
19651;SDS011;9974;52.146;14.668;2023-04-15T12:01:02;15.77;;;11.43;;
19651;SDS011;9974;52.146;14.668;2023-04-15T12:03:29;14.50;;;12.23;;
19651;SDS011;9974;52.146;14.668;2023-04-15T12:08:48;13.57;;;11.70;;
19651;SDS011;9974;52.146;14.668;2023-04-15T12:16:48;12.52;;;10.27;;
19651;SDS011;9974;52.146;14.668;2023-04-15T12:19:25;13.13;;;11.43;;
19651;SDS011;9974;52.146;14.668;2023-04-15T12:21:56;14.20;;;10.73;;
19651;SDS011;9974;52.146;14.668;2023-04-15T12:24:30;11.52;;;10.15;;
19651;SDS011;9974;52.146;14.668;2023-04-15T12:26:58;12.15;;;9.52;;
19651;SDS011;9974;52.146;14.668;2023-04-15T12:29:27;10.40;;;8.93;;
19651;SDS011;9974;52.146;14.668;2023-04-15T12:34:27;12.07;;;10.07;;
19651;SDS011;9974;52.146;14.668;2023-04-15T12:37:00;12.15;;;9.55;;
19651;SDS011;9974;52.146;14.668;2023-04-15T12:39:30;14.13;;;9.15;;
19651;SDS011;9974;52.146;14.668;2023-04-15T12:41:59;12.65;;;9.07;;
19651;SDS011;9974;52.146;14.668;2023-04-15T12:44:25;8.80;;;7.85;;
19651;SDS011;9974;52.146;14.668;2023-04-15T12:46:51;10.23;;;8.60;;
19651;SDS011;9974;52.146;14.668;2023-04-15T12:49:17;11.50;;;8.65;;
19651;SDS011;9974;52.146;14.668;2023-04-15T12:51:45;14.00;;;9.85;;
19651;SDS011;9974;52.146;14.668;2023-04-15T12:54:19;12.25;;;10.18;;
19651;SDS011;9974;52.146;14.668;2023-04-15T12:56:45;12.05;;;9.32;;
19651;SDS011;9974;52.146;14.668;2023-04-15T12:59:14;10.30;;;8.07;;
19651;SDS011;9974;52.146;14.668;2023-04-15T13:01:41;14.52;;;9.00;;
19651;SDS011;9974;52.146;14.668;2023-04-15T13:04:08;11.60;;;9.02;;
19651;SDS011;9974;52.146;14.668;2023-04-15T13:06:33;11.10;;;8.25;;
19651;SDS011;9974;52.146;14.668;2023-04-15T13:09:00;11.73;;;8.18;;
19651;SDS011;9974;52.146;14.668;2023-04-15T13:11:27;10.65;;;7.90;;
19651;SDS011;9974;52.146;14.668;2023-04-15T13:13:58;11.27;;;8.20;;
19651;SDS011;9974;52.146;14.668;2023-04-15T13:16:28;10.88;;;8.00;;
19651;SDS011;9974;52.146;14.668;2023-04-15T13:18:54;11.13;;;9.07;;
19651;SDS011;9974;52.146;14.668;2023-04-15T13:21:20;10.88;;;7.40;;
19651;SDS011;9974;52.146;14.668;2023-04-15T13:23:47;10.80;;;7.57;;
19651;SDS011;9974;52.146;14.668;2023-04-15T13:26:14;10.68;;;7.85;;
19651;SDS011;9974;52.146;14.668;2023-04-15T13:28:41;10.32;;;8.05;;
19651;SDS011;9974;52.146;14.668;2023-04-15T13:31:06;9.30;;;7.85;;
19651;SDS011;9974;52.146;14.668;2023-04-15T13:33:32;10.20;;;8.00;;
19651;SDS011;9974;52.146;14.668;2023-04-15T13:35:58;12.25;;;8.07;;
19651;SDS011;9974;52.146;14.668;2023-04-15T13:38:25;10.05;;;7.38;;
19651;SDS011;9974;52.146;14.668;2023-04-15T13:40:51;8.73;;;7.68;;
19651;SDS011;9974;52.146;14.668;2023-04-15T13:43:17;9.65;;;7.72;;
19651;SDS011;9974;52.146;14.668;2023-04-15T13:45:43;9.07;;;6.85;;
19651;SDS011;9974;52.146;14.668;2023-04-15T13:48:10;10.00;;;7.22;;
19651;SDS011;9974;52.146;14.668;2023-04-15T13:50:36;11.73;;;7.80;;
19651;SDS011;9974;52.146;14.668;2023-04-15T13:53:02;10.05;;;7.20;;
19651;SDS011;9974;52.146;14.668;2023-04-15T13:55:28;8.05;;;6.75;;
19651;SDS011;9974;52.146;14.668;2023-04-15T13:57:55;9.55;;;7.45;;
19651;SDS011;9974;52.146;14.668;2023-04-15T14:00:20;8.55;;;7.15;;
19651;SDS011;9974;52.146;14.668;2023-04-15T14:02:46;10.02;;;6.82;;
19651;SDS011;9974;52.146;14.668;2023-04-15T14:05:12;7.75;;;6.68;;
19651;SDS011;9974;52.146;14.668;2023-04-15T14:07:39;7.47;;;6.03;;
19651;SDS011;9974;52.146;14.668;2023-04-15T14:10:05;8.50;;;5.50;;
19651;SDS011;9974;52.146;14.668;2023-04-15T14:12:31;8.98;;;5.85;;
19651;SDS011;9974;52.146;14.668;2023-04-15T14:14:57;9.05;;;5.88;;
19651;SDS011;9974;52.146;14.668;2023-04-15T14:17:23;7.63;;;6.00;;
19651;SDS011;9974;52.146;14.668;2023-04-15T14:19:49;8.25;;;5.85;;
19651;SDS011;9974;52.146;14.668;2023-04-15T14:22:15;9.00;;;5.75;;
19651;SDS011;9974;52.146;14.668;2023-04-15T14:24:42;7.20;;;5.07;;
19651;SDS011;9974;52.146;14.668;2023-04-15T14:27:09;7.55;;;5.60;;
19651;SDS011;9974;52.146;14.668;2023-04-15T14:29:36;7.88;;;5.47;;
19651;SDS011;9974;52.146;14.668;2023-04-15T14:32:02;8.85;;;5.88;;
19651;SDS011;9974;52.146;14.668;2023-04-15T14:34:28;8.27;;;5.57;;
19651;SDS011;9974;52.146;14.668;2023-04-15T14:36:54;7.15;;;5.40;;
19651;SDS011;9974;52.146;14.668;2023-04-15T14:39:20;10.15;;;5.00;;
19651;SDS011;9974;52.146;14.668;2023-04-15T14:41:46;6.30;;;4.70;;
19651;SDS011;9974;52.146;14.668;2023-04-15T14:44:12;5.93;;;4.55;;
19651;SDS011;9974;52.146;14.668;2023-04-15T14:46:38;5.65;;;4.25;;